Time;durP1;ratioP1;P1;durP2;ratioP2;P2;SDS_P1;SDS_P2;PMS_P1;PMS_P2;Temp;Humidity;BMP_temperature;BMP_pressure;BME280_temperature;BME280_humidity;BME280_pressure;Samples;Min_cycle;Max_cycle;Signal;HPM_P1;HPM_P2
2023/07/26 00:00:56;;;;;;;10.90;9.80;;;;;;;15.30;81.05;96211.25;5061560;28;20034;-80
2023/07/26 00:12:12;;;;;;;10.77;9.30;;;;;;;15.29;79.83;96225.44;5061097;28;20062;-79
2023/07/26 00:15:03;;;;;;;11.00;9.25;;;;;;;15.30;80.40;96227.81;5061068;28;20029;-79
2023/07/26 00:18:15;;;;;;;11.10;9.93;;;;;;;15.27;78.56;96230.91;5060953;28;20033;-79
2023/07/26 00:20:48;;;;;;;12.25;10.02;;;;;;;15.21;78.81;96240.44;5073963;22;20084;-79
2023/07/26 00:23:16;;;;;;;9.82;8.82;;;;;;;15.16;79.27;96237.69;5036158;28;20056;-79
2023/07/26 00:25:45;;;;;;;12.20;10.88;;;;;;;15.15;79.96;96233.47;5036556;28;20107;-79
2023/07/26 00:28:13;;;;;;;12.07;10.38;;;;;;;15.13;79.68;96240.78;5036803;28;20107;-79
2023/07/26 00:30:40;;;;;;;12.65;10.63;;;;;;;15.15;79.17;96240.53;5035107;28;20077;-79
2023/07/26 00:33:08;;;;;;;14.80;11.35;;;;;;;15.12;78.43;96244.41;5035812;28;20053;-79
2023/07/26 00:35:41;;;;;;;13.32;10.40;;;;;;;15.08;78.40;96240.59;5035453;28;20053;-79
2023/07/26 00:38:09;;;;;;;13.23;10.77;;;;;;;15.04;78.33;96236.81;5035471;28;20057;-79
2023/07/26 00:40:36;;;;;;;15.95;11.88;;;;;;;15.02;78.48;96237.03;5048821;28;20049;-79
2023/07/26 00:43:06;;;;;;;14.70;11.63;;;;;;;15.02;78.93;96246.72;5035467;28;20061;-79
2023/07/26 00:45:36;;;;;;;13.75;11.23;;;;;;;15.02;78.56;96246.72;5035914;28;20057;-79
2023/07/26 00:48:04;;;;;;;14.32;10.77;;;;;;;15.02;78.59;96249.34;5035612;28;20523;-79
2023/07/26 00:50:32;;;;;;;14.30;12.27;;;;;;;15.02;78.67;96247.56;5035523;28;20045;-79
2023/07/26 00:52:59;;;;;;;15.82;11.60;;;;;;;15.04;78.16;96253.38;5035767;28;20049;-79
2023/07/26 00:55:27;;;;;;;16.77;12.43;;;;;;;15.03;77.63;96253.59;5035354;28;20099;-79
2023/07/26 00:57:56;;;;;;;15.70;11.75;;;;;;;14.98;77.78;96253.47;5035074;28;20053;-79
2023/07/26 01:00:26;;;;;;;15.60;11.50;;;;;;;14.93;77.52;96254.09;5037624;28;20509;-79
2023/07/26 01:02:53;;;;;;;15.18;13.35;;;;;;;14.91;77.98;96255.31;5036988;28;20493;-79
2023/07/26 01:05:24;;;;;;;15.80;14.10;;;;;;;14.94;79.20;96265.41;5035093;28;20055;-79
2023/07/26 01:08:01;;;;;;;16.15;13.68;;;;;;;14.94;78.08;96266.22;5037404;28;20073;-79
2023/07/26 01:10:35;;;;;;;15.32;13.60;;;;;;;14.92;77.99;96264.84;5036797;28;20107;-79
2023/07/26 01:13:12;;;;;;;16.77;14.00;;;;;;;14.93;78.92;96271.66;5036829;28;20075;-79
2023/07/26 01:15:42;;;;;;;15.85;14.15;;;;;;;14.94;78.67;96270.66;5037041;28;20132;-79
2023/07/26 01:18:11;;;;;;;16.02;13.70;;;;;;;14.93;78.27;96269.03;5036527;28;20079;-79
2023/07/26 01:20:39;;;;;;;17.50;13.60;;;;;;;14.92;78.40;96260.38;5046758;28;20076;-79
2023/07/26 01:23:09;;;;;;;19.58;15.10;;;;;;;14.93;78.65;96261.16;5049673;28;20049;-79
2023/07/26 01:25:36;;;;;;;16.55;14.93;;;;;;;14.94;78.68;96262.78;5037420;28;20054;-79
2023/07/26 01:28:04;;;;;;;16.83;12.27;;;;;;;14.95;78.17;96261.75;5036044;28;20041;-79
2023/07/26 01:30:34;;;;;;;15.70;13.02;;;;;;;14.96;78.68;96273.88;5034315;28;20045;-79
2023/07/26 01:33:06;;;;;;;15.32;12.85;;;;;;;14.95;78.07;96277.50;5035739;28;20476;-79
2023/07/26 01:35:36;;;;;;;17.70;14.93;;;;;;;14.94;79.45;96281.19;5034674;28;20076;-79
2023/07/26 01:38:04;;;;;;;18.50;12.85;;;;;;;14.92;78.93;96278.75;5034419;28;20053;-79
2023/07/26 01:40:34;;;;;;;14.63;12.77;;;;;;;14.93;78.86;96285.59;5035751;28;20049;-79
2023/07/26 01:43:02;;;;;;;16.20;13.35;;;;;;;14.95;78.62;96288.03;5035295;28;20087;-79
2023/07/26 01:45:30;;;;;;;15.95;13.75;;;;;;;14.96;79.49;96282.56;5035605;28;20080;-79
2023/07/26 01:47:59;;;;;;;15.25;13.43;;;;;;;14.97;78.48;96285.97;5034277;28;20075;-79
2023/07/26 01:50:26;;;;;;;18.83;13.57;;;;;;;14.97;78.63;96285.97;5033331;28;20128;-79
2023/07/26 01:52:54;;;;;;;14.35;12.90;;;;;;;14.97;78.46;96285.97;5035237;28;20123;-79
2023/07/26 01:55:21;;;;;;;15.70;13.90;;;;;;;14.97;79.01;96280.72;5035328;28;20094;-79
2023/07/26 01:57:51;;;;;;;17.10;14.35;;;;;;;15.00;79.59;96280.31;5035569;28;20057;-79
2023/07/26 02:00:18;;;;;;;18.58;14.10;;;;;;;15.01;78.97;96287.16;5033636;28;20492;-79
2023/07/26 02:02:46;;;;;;;14.93;13.18;;;;;;;14.99;78.20;96294.44;5034870;28;20049;-79
2023/07/26 02:05:15;;;;;;;16.33;12.60;;;;;;;14.94;77.62;96286.44;5033133;28;20132;-79
2023/07/26 02:07:42;;;;;;;17.15;12.40;;;;;;;14.91;77.79;96287.66;5035252;28;20083;-79
2023/07/26 02:10:10;;;;;;;16.27;13.55;;;;;;;14.91;77.86;96281.59;5034893;28;20045;-79
2023/07/26 02:12:38;;;;;;;17.70;13.30;;;;;;;14.92;77.86;96293.72;5033408;28;20056;-78
2023/07/26 02:15:07;;;;;;;16.15;13.57;;;;;;;14.91;77.77;96292.09;5035278;28;20140;-79
2023/07/26 02:17:35;;;;;;;19.02;13.15;;;;;;;14.92;77.45;96291.09;5035109;28;20045;-79
2023/07/26 02:20:04;;;;;;;17.52;12.98;;;;;;;14.94;77.91;96305.59;5033649;28;20053;-79
2023/07/26 02:22:32;;;;;;;15.55;13.50;;;;;;;14.93;77.48;96300.56;5033771;28;20140;-79
2023/07/26 02:24:59;;;;;;;18.35;14.20;;;;;;;14.94;77.82;96299.56;5035400;28;20567;-79
2023/07/26 02:27:27;;;;;;;15.88;13.13;;;;;;;14.94;77.64;96299.56;5037309;28;20050;-78
2023/07/26 02:29:54;;;;;;;16.77;13.95;;;;;;;14.93;77.55;96305.81;5050715;28;20076;-79
2023/07/26 02:32:23;;;;;;;16.65;12.50;;;;;;;14.94;77.12;96310.06;5032926;28;20103;-79
2023/07/26 02:34:51;;;;;;;18.52;13.85;;;;;;;14.93;77.59;96304.00;5032836;28;20500;-79
2023/07/26 02:37:18;;;;;;;17.60;14.35;;;;;;;14.93;78.32;96306.63;5033297;28;20057;-78
2023/07/26 02:39:46;;;;;;;20.33;14.43;;;;;;;14.97;79.06;96307.00;5032842;28;20064;-79
2023/07/26 02:42:14;;;;;;;17.40;14.13;;;;;;;14.96;78.03;96303.56;5032702;28;20088;-79
2023/07/26 02:44:41;;;;;;;19.27;13.60;;;;;;;14.96;78.02;96308.03;5032444;28;20053;-79
2023/07/26 02:47:09;;;;;;;16.25;13.23;;;;;;;14.96;78.10;96311.44;5032761;28;20524;-79
2023/07/26 02:49:38;;;;;;;15.88;13.68;;;;;;;14.96;78.38;96318.53;5032439;28;20490;-78
2023/07/26 02:52:06;;;;;;;16.40;13.60;;;;;;;14.97;77.81;96320.13;5032008;28;20096;-79
2023/07/26 02:54:34;;;;;;;15.43;13.23;;;;;;;14.96;77.35;96321.16;5032689;28;20425;-79
2023/07/26 02:57:01;;;;;;;17.15;14.05;;;;;;;14.98;77.49;96321.75;5047979;28;20046;-79
2023/07/26 02:59:29;;;;;;;20.80;14.30;;;;;;;14.96;77.32;96321.97;5045762;28;20467;-78
2023/07/26 03:01:56;;;;;;;18.63;15.30;;;;;;;14.99;78.18;96325.97;5045860;28;20410;-79
2023/07/26 03:04:24;;;;;;;18.13;14.57;;;;;;;15.00;77.72;96332.84;5044897;28;20144;-79
2023/07/26 03:06:53;;;;;;;20.90;15.38;;;;;;;14.98;77.64;96340.94;5046064;28;20057;-79
2023/07/26 03:09:21;;;;;;;17.52;13.82;;;;;;;14.96;77.35;96336.91;5043896;28;20045;-79
2023/07/26 03:11:49;;;;;;;17.05;14.68;;;;;;;14.97;78.11;96335.88;5040719;28;20061;-78
2023/07/26 03:14:16;;;;;;;17.83;14.30;;;;;;;14.95;77.96;96332.66;5038361;28;20049;-79
2023/07/26 03:16:44;;;;;;;17.65;15.75;;;;;;;14.92;77.63;96335.75;5034975;28;20057;-79
2023/07/26 03:19:11;;;;;;;17.10;13.73;;;;;;;14.87;77.30;96340.81;5038331;28;20112;-79
2023/07/26 03:21:39;;;;;;;18.10;15.30;;;;;;;14.83;78.25;96349.13;5035806;28;20041;-79
2023/07/26 03:24:08;;;;;;;18.90;15.02;;;;;;;14.78;77.69;96348.97;5037881;28;20056;-79
2023/07/26 03:26:36;;;;;;;17.77;14.43;;;;;;;14.76;77.63;96352.84;5037674;28;20084;-79
2023/07/26 03:29:03;;;;;;;16.02;14.13;;;;;;;14.72;77.63;96349.03;5037543;28;20160;-79
2023/07/26 03:31:31;;;;;;;16.58;14.80;;;;;;;14.73;78.60;96345.38;5036802;28;20050;-78
2023/07/26 03:33:58;;;;;;;15.02;13.27;;;;;;;14.75;78.25;96352.00;5036055;28;20096;-79
2023/07/26 03:36:26;;;;;;;17.00;13.95;;;;;;;14.75;78.50;96341.50;5036392;28;20053;-79
2023/07/26 03:38:54;;;;;;;21.45;14.48;;;;;;;14.79;78.36;96347.16;5035896;28;20080;-79
2023/07/26 03:41:23;;;;;;;15.80;11.75;;;;;;;14.78;77.73;96351.59;5036775;28;20406;-79
2023/07/26 03:43:50;;;;;;;16.17;13.90;;;;;;;14.77;77.98;96352.59;5047071;28;20054;-80
2023/07/26 03:46:18;;;;;;;14.18;12.68;;;;;;;14.78;78.15;96361.28;5055081;28;20052;-79
2023/07/26 03:48:46;;;;;;;22.98;14.02;;;;;;;14.77;78.15;96362.31;5054336;28;20103;-78
2023/07/26 03:51:13;;;;;;;18.40;14.73;;;;;;;14.77;79.15;96364.94;5047692;28;20041;-79
2023/07/26 03:53:42;;;;;;;14.93;13.35;;;;;;;14.76;78.33;96369.41;5058997;28;20049;-79
2023/07/26 03:56:10;;;;;;;17.83;13.02;;;;;;;14.77;78.57;96372.81;5043134;28;20049;-78
2023/07/26 03:58:41;;;;;;;22.35;13.73;;;;;;;14.78;78.49;96369.16;5036921;28;20052;-79
2023/07/26 04:01:10;;;;;;;17.42;13.98;;;;;;;14.76;77.42;96372.03;5060612;28;20057;-79
2023/07/26 04:03:38;;;;;;;18.88;14.18;;;;;;;14.73;77.48;96375.06;5060180;28;20030;-79
2023/07/26 04:06:12;;;;;;;16.88;14.18;;;;;;;14.71;77.69;96381.53;5061257;28;20034;-79
2023/07/26 04:08:40;;;;;;;18.98;15.15;;;;;;;14.67;77.89;96383.81;5061242;28;20053;-79
2023/07/26 04:11:13;;;;;;;17.65;14.35;;;;;;;14.65;77.44;96387.63;5060740;28;20060;-79
2023/07/26 04:13:57;;;;;;;16.52;14.63;;;;;;;14.64;77.90;96392.09;5058104;28;20064;-80
2023/07/26 04:16:24;;;;;;;17.42;14.13;;;;;;;14.65;77.94;96392.88;5051345;28;20049;-79
2023/07/26 04:18:53;;;;;;;17.15;13.95;;;;;;;14.65;77.83;96391.09;5170638;22;20041;-79
2023/07/26 04:21:20;;;;;;;15.35;12.93;;;;;;;14.67;77.08;96396.94;5037202;28;20045;-79
2023/07/26 04:23:48;;;;;;;16.65;13.32;;;;;;;14.68;76.64;96390.66;5036096;28;20049;-79
2023/07/26 04:26:16;;;;;;;17.13;13.00;;;;;;;14.70;77.25;96399.13;5035186;28;20053;-78
2023/07/26 04:28:43;;;;;;;15.48;12.77;;;;;;;14.68;76.58;96395.09;5034812;28;20115;-78
2023/07/26 04:31:12;;;;;;;14.65;12.35;;;;;;;14.64;75.81;96407.84;5034982;28;20042;-79
2023/07/26 04:33:40;;;;;;;14.40;12.93;;;;;;;14.64;77.05;96407.84;5035226;28;20056;-79
2023/07/26 04:36:08;;;;;;;16.35;11.77;;;;;;;14.65;76.81;96419.97;5035220;28;20049;-78
2023/07/26 04:38:35;;;;;;;13.98;12.45;;;;;;;14.68;77.43;96416.91;5044626;28;20033;-78
2023/07/26 04:41:04;;;;;;;13.93;12.63;;;;;;;14.69;77.24;96418.50;5046681;28;20049;-78
2023/07/26 04:43:32;;;;;;;18.70;13.32;;;;;;;14.68;77.23;96422.16;5034953;28;20140;-79
2023/07/26 04:46:00;;;;;;;14.38;12.00;;;;;;;14.69;76.97;96421.13;5034961;28;20085;-78
2023/07/26 04:48:29;;;;;;;15.30;12.30;;;;;;;14.66;77.04;96413.69;5034920;28;20057;-79
2023/07/26 04:50:56;;;;;;;16.80;12.25;;;;;;;14.67;76.99;96422.34;5034425;28;20053;-79
2023/07/26 04:53:24;;;;;;;15.20;11.52;;;;;;;14.68;76.72;96424.78;5034814;28;20085;-78
2023/07/26 04:55:52;;;;;;;13.52;11.85;;;;;;;14.67;76.61;96433.69;5035010;28;20136;-79
2023/07/26 04:58:20;;;;;;;14.50;11.77;;;;;;;14.65;75.62;96433.09;5034790;28;20049;-79
2023/07/26 05:00:48;;;;;;;15.50;11.68;;;;;;;14.63;77.34;96428.03;5034291;28;20079;-79
2023/07/26 05:03:16;;;;;;;12.98;11.15;;;;;;;14.62;76.01;96436.13;5034691;28;20049;-79
2023/07/26 05:05:49;;;;;;;12.63;11.10;;;;;;;14.61;77.09;96435.31;5034737;28;20049;-79
2023/07/26 05:08:17;;;;;;;14.27;10.75;;;;;;;14.62;76.56;96436.13;5034867;28;20523;-79
2023/07/26 05:10:49;;;;;;;15.35;10.20;;;;;;;14.63;76.00;96435.13;5034527;28;20095;-78
2023/07/26 05:13:16;;;;;;;15.52;11.68;;;;;;;14.66;77.41;96437.31;5034300;28;20137;-79
2023/07/26 05:15:44;;;;;;;11.68;10.48;;;;;;;14.67;77.26;96438.09;5034423;28;20111;-78
2023/07/26 05:18:14;;;;;;;12.07;9.43;;;;;;;14.69;77.15;96446.56;5033983;28;20505;-78
2023/07/26 05:20:42;;;;;;;11.38;10.13;;;;;;;14.72;77.65;96449.59;5033792;28;20050;-79
2023/07/26 05:23:11;;;;;;;11.52;9.60;;;;;;;14.77;76.96;96454.22;5034030;28;20054;-78
2023/07/26 05:25:39;;;;;;;11.18;9.15;;;;;;;14.77;77.41;96454.22;5033920;28;20502;-79
2023/07/26 05:28:07;;;;;;;11.20;10.02;;;;;;;14.79;76.92;96452.19;5034120;28;20497;-79
2023/07/26 05:30:38;;;;;;;18.50;10.07;;;;;;;14.78;76.50;96456.63;5033649;28;20390;-78
2023/07/26 05:33:06;;;;;;;10.23;9.10;;;;;;;14.78;76.23;96454.00;5034144;28;20474;-79
2023/07/26 05:35:33;;;;;;;9.65;8.68;;;;;;;14.79;75.27;96460.06;5033965;28;20468;-78
2023/07/26 05:38:01;;;;;;;10.00;8.45;;;;;;;14.81;75.37;96456.19;5034036;28;20111;-79
2023/07/26 05:40:30;;;;;;;9.90;8.77;;;;;;;14.84;75.34;96455.75;5032280;28;20049;-79
2023/07/26 05:42:58;;;;;;;10.50;8.77;;;;;;;14.92;76.26;96462.59;5034281;28;20077;-78
2023/07/26 05:45:27;;;;;;;9.63;8.55;;;;;;;14.96;75.17;96460.38;5033797;28;20046;-78
2023/07/26 05:47:55;;;;;;;15.10;9.77;;;;;;;14.99;75.78;96465.97;5033814;28;20488;-79
2023/07/26 05:50:23;;;;;;;9.68;8.68;;;;;;;15.02;76.19;96468.19;5033363;28;20081;-78
2023/07/26 05:52:52;;;;;;;9.82;8.73;;;;;;;15.04;75.17;96470.59;5033538;28;20056;-79
2023/07/26 05:55:20;;;;;;;12.02;8.45;;;;;;;14.99;74.17;96465.97;5033487;28;20053;-79
2023/07/26 05:57:49;;;;;;;11.60;9.10;;;;;;;14.97;74.76;96473.25;5033258;28;20050;-79
2023/07/26 06:00:18;;;;;;;10.90;9.13;;;;;;;14.99;74.72;96465.19;5033361;28;20103;-78
2023/07/26 06:02:46;;;;;;;10.52;9.35;;;;;;;15.02;75.26;96468.19;5033406;28;20394;-79
2023/07/26 06:05:14;;;;;;;11.38;9.35;;;;;;;15.10;76.17;96474.19;5033483;28;20124;-79
2023/07/26 06:07:41;;;;;;;9.30;8.40;;;;;;;15.15;74.98;96483.06;5033276;28;20045;-79
2023/07/26 06:10:09;;;;;;;8.77;7.88;;;;;;;15.18;73.61;96481.81;5033005;28;20053;-78
2023/07/26 06:12:37;;;;;;;8.95;7.10;;;;;;;15.17;73.11;96478.38;5032944;28;20045;-79
2023/07/26 06:15:07;;;;;;;8.52;7.63;;;;;;;15.17;72.58;96480.19;5033638;28;20060;-78
2023/07/26 06:17:35;;;;;;;11.45;8.43;;;;;;;15.17;73.53;96482.81;5034040;28;20072;-78
2023/07/26 06:20:04;;;;;;;11.68;8.40;;;;;;;15.13;73.29;96485.09;5033932;28;20414;-78
2023/07/26 06:22:32;;;;;;;8.77;7.88;;;;;;;15.12;74.06;96493.97;5034191;28;20045;-78
2023/07/26 06:24:59;;;;;;;13.30;10.20;;;;;;;15.11;73.33;96492.38;5033851;28;20086;-78
2023/07/26 06:27:29;;;;;;;11.98;10.60;;;;;;;15.11;75.70;96495.00;5034077;28;20041;-78
2023/07/26 06:29:57;;;;;;;13.05;7.88;;;;;;;15.11;73.50;96491.56;5033751;28;20084;-79
2023/07/26 06:32:27;;;;;;;8.25;7.03;;;;;;;15.07;72.91;96490.41;5033892;28;20045;-78
2023/07/26 06:34:56;;;;;;;8.80;7.57;;;;;;;15.07;72.87;96491.19;5035879;28;20148;-78
2023/07/26 06:37:24;;;;;;;11.63;7.93;;;;;;;15.08;72.49;96492.00;5034966;28;20057;-79
2023/07/26 06:39:52;;;;;;;7.53;6.85;;;;;;;15.03;72.34;96495.25;5034909;28;20045;-79
2023/07/26 06:42:19;;;;;;;10.43;7.53;;;;;;;15.00;73.69;96500.94;5034931;28;20103;-79
2023/07/26 06:44:47;;;;;;;10.18;7.57;;;;;;;15.02;73.09;96493.63;5034989;28;20079;-79
2023/07/26 06:47:15;;;;;;;7.93;7.18;;;;;;;15.03;73.43;96500.50;5035296;28;20046;-78
2023/07/26 06:49:44;;;;;;;7.50;6.75;;;;;;;15.03;72.74;96498.69;5047803;28;20053;-79
2023/07/26 06:52:11;;;;;;;7.70;6.80;;;;;;;15.04;72.97;96496.84;5040788;28;20045;-79
2023/07/26 06:54:39;;;;;;;7.45;6.65;;;;;;;15.07;72.71;96496.44;5035504;28;20045;-78
2023/07/26 06:57:07;;;;;;;9.93;7.65;;;;;;;15.14;73.33;96497.19;5035326;28;20049;-79
2023/07/26 06:59:35;;;;;;;7.40;6.38;;;;;;;15.18;72.84;96495.75;5038685;28;20079;-78
2023/07/26 07:02:04;;;;;;;7.32;6.63;;;;;;;15.21;73.14;96505.84;5045226;28;20053;-79
2023/07/26 07:04:33;;;;;;;7.78;6.90;;;;;;;15.25;73.51;96501.75;5020957;28;20057;-79
2023/07/26 07:07:02;;;;;;;10.20;6.25;;;;;;;15.32;73.46;96508.81;5015216;28;20468;-78
2023/07/26 07:09:30;;;;;;;6.45;5.80;;;;;;;15.31;72.47;96502.75;5014075;28;20513;-79
2023/07/26 07:11:57;;;;;;;7.85;6.28;;;;;;;15.34;72.18;96496.25;5013236;28;20049;-78
2023/07/26 07:14:25;;;;;;;8.80;7.50;;;;;;;15.39;73.56;96497.22;5013544;28;20065;-79
2023/07/26 07:16:53;;;;;;;10.00;7.28;;;;;;;15.43;72.00;96500.22;5012471;28;20576;-78
2023/07/26 07:19:20;;;;;;;12.15;6.70;;;;;;;15.43;72.20;96497.59;5012875;28;20061;-79
2023/07/26 07:21:48;;;;;;;7.95;7.18;;;;;;;15.48;73.60;96494.31;5012850;28;20050;-78
2023/07/26 07:24:17;;;;;;;7.05;5.90;;;;;;;15.52;72.82;96496.28;5013185;28;20053;-78
2023/07/26 07:26:45;;;;;;;6.07;4.85;;;;;;;15.57;71.76;96500.94;5013009;28;20442;-78
2023/07/26 07:29:12;;;;;;;8.90;6.20;;;;;;;15.62;72.58;96509.75;5014519;28;20073;-79
2023/07/26 07:31:40;;;;;;;6.65;6.05;;;;;;;15.66;72.38;96505.69;5014744;28;20046;-78
2023/07/26 07:34:07;;;;;;;6.30;5.45;;;;;;;15.68;71.20;96502.84;5017853;28;20054;-79
2023/07/26 07:36:35;;;;;;;6.80;5.97;;;;;;;15.71;70.85;96502.44;5018535;28;20053;-79
2023/07/26 07:39:07;;;;;;;7.13;5.28;;;;;;;15.74;70.40;96506.47;5018768;28;20078;-79
2023/07/26 07:41:36;;;;;;;;;;;;;;;15.79;71.21;96511.88;5014954;28;20050;-79
2023/07/26 07:44:04;;;;;;;6.97;5.82;;;;;;;15.86;71.84;96507.38;5017324;28;19921;-79
2023/07/26 07:46:32;;;;;;;5.90;5.40;;;;;;;15.92;71.49;96511.75;5023285;28;20076;-79
2023/07/26 07:49:00;;;;;;;5.78;4.93;;;;;;;15.94;70.12;96509.72;5023860;28;20049;-79
2023/07/26 07:51:28;;;;;;;6.68;5.50;;;;;;;15.99;69.75;96507.22;5023249;28;20113;-79
2023/07/26 07:53:55;;;;;;;7.78;5.28;;;;;;;16.09;69.24;96511.19;5023536;28;20081;-79
2023/07/26 07:56:23;;;;;;;7.45;5.60;;;;;;;16.17;69.40;96508.25;5022738;28;20046;-79
2023/07/26 07:58:52;;;;;;;5.45;4.45;;;;;;;16.27;69.21;96516.47;5013526;28;20112;-79
2023/07/26 08:01:20;;;;;;;5.50;4.82;;;;;;;16.36;68.43;96509.88;5012955;28;20049;-79
2023/07/26 08:03:47;;;;;;;6.65;5.72;;;;;;;16.43;69.10;96512.44;5016377;28;20050;-79
2023/07/26 08:06:15;;;;;;;6.38;5.70;;;;;;;16.42;67.93;96513.44;5020360;28;20057;-79
2023/07/26 08:08:43;;;;;;;8.63;5.25;;;;;;;16.38;68.48;96515.72;5016970;28;20493;-79
2023/07/26 08:11:10;;;;;;;8.18;5.63;;;;;;;16.34;67.14;96511.13;5015431;28;20476;-79
2023/07/26 08:13:38;;;;;;;8.43;5.90;;;;;;;16.29;68.29;96514.41;5015997;28;20042;-78
2023/07/26 08:16:07;;;;;;;6.43;5.03;;;;;;;16.33;68.82;96506.88;5015731;28;20120;-79
2023/07/26 08:18:35;;;;;;;7.22;5.20;;;;;;;16.50;67.91;96510.50;5015501;28;20054;-78
2023/07/26 08:21:03;;;;;;;8.23;5.45;;;;;;;16.60;66.35;96508.16;5015565;28;20077;-79
2023/07/26 08:23:31;;;;;;;5.60;4.70;;;;;;;16.69;66.46;96512.09;5015415;28;20045;-79
2023/07/26 08:26:03;;;;;;;44.33;28.42;;;;;;;16.76;65.58;96504.09;5015874;28;20050;-79
2023/07/26 08:28:30;;;;;;;8.60;5.78;;;;;;;16.80;64.79;96509.78;5015554;28;20104;-78
2023/07/26 08:30:58;;;;;;;19.48;13.93;;;;;;;16.84;65.58;96501.19;5015045;28;20084;-78
2023/07/26 08:33:27;;;;;;;9.80;6.60;;;;;;;16.89;65.23;96493.41;5015353;28;20046;-78
2023/07/26 08:35:55;;;;;;;7.07;6.00;;;;;;;16.92;66.06;96504.53;5015291;28;20132;-78
2023/07/26 08:38:23;;;;;;;5.80;5.28;;;;;;;16.95;67.31;96512.00;5015178;28;20109;-78
2023/07/26 08:40:51;;;;;;;7.03;4.13;;;;;;;16.95;64.60;96509.38;5014863;28;20104;-78
2023/07/26 08:43:19;;;;;;;5.40;4.03;;;;;;;16.93;63.88;96504.31;5015101;28;20049;-79
2023/07/26 08:45:47;;;;;;;4.43;4.05;;;;;;;16.96;64.76;96505.69;5014816;28;20497;-79
2023/07/26 08:48:15;;;;;;;25.83;19.00;;;;;;;17.00;64.72;96501.59;5014947;28;20053;-78
2023/07/26 08:50:44;;;;;;;12.27;9.32;;;;;;;17.03;64.17;96509.03;5014613;28;20081;-78
2023/07/26 08:53:12;;;;;;;7.07;5.60;;;;;;;16.97;62.91;96505.47;5014780;28;20084;-78
2023/07/26 08:55:39;;;;;;;6.20;5.55;;;;;;;16.85;64.47;96502.78;5014666;28;20564;-78
2023/07/26 08:58:07;;;;;;;7.57;4.30;;;;;;;16.82;64.76;96513.78;5014825;28;20111;-78
2023/07/26 09:00:36;;;;;;;4.85;4.07;;;;;;;16.80;63.00;96518.47;5030777;28;20046;-79
2023/07/26 09:03:07;;;;;;;4.35;3.70;;;;;;;16.74;62.66;96518.53;5020305;28;20081;-78
2023/07/26 09:05:35;;;;;;;5.97;4.27;;;;;;;16.71;65.10;96521.63;5015026;28;20050;-78
2023/07/26 09:08:04;;;;;;;4.70;4.13;;;;;;;16.69;64.68;96537.63;5014812;28;20054;-78
2023/07/26 09:10:33;;;;;;;6.13;4.10;;;;;;;16.64;65.81;96554.09;5014295;28;20049;-79
2023/07/26 09:13:10;;;;;;;3.88;3.30;;;;;;;16.55;65.17;96570.41;5014596;28;20042;-78
2023/07/26 09:15:39;;;;;;;3.80;2.83;;;;;;;16.41;64.98;96573.19;5013981;28;20502;-78
2023/07/26 09:18:08;;;;;;;5.18;3.35;;;;;;;16.26;66.50;96568.28;5014775;28;20497;-79
2023/07/26 09:20:37;;;;;;;3.42;3.13;;;;;;;16.04;66.88;96557.34;5013826;28;20129;-78
2023/07/26 09:23:08;;;;;;;2.58;2.38;;;;;;;15.86;65.71;96563.41;5014213;28;20073;-78
2023/07/26 09:25:39;;;;;;;3.13;2.08;;;;;;;15.75;66.07;96560.69;5014362;28;20049;-79
2023/07/26 09:28:07;;;;;;;2.83;1.88;;;;;;;15.70;65.18;96560.47;5014145;28;20061;-79
2023/07/26 09:30:36;;;;;;;4.13;2.40;;;;;;;15.68;65.67;96554.63;5013794;28;20052;-78
2023/07/26 09:33:06;;;;;;;3.40;2.55;;;;;;;15.74;66.06;96548.53;5014795;28;20054;-78
2023/07/26 09:35:42;;;;;;;8.13;3.05;;;;;;;15.92;67.57;96553.03;5014225;28;20493;-79
2023/07/26 09:38:11;;;;;;;5.20;3.33;;;;;;;16.07;66.84;96550.88;5014083;28;20100;-79
2023/07/26 09:40:39;;;;;;;5.63;3.30;;;;;;;16.15;66.67;96553.22;5013558;28;20571;-78
2023/07/26 09:43:07;;;;;;;3.92;3.35;;;;;;;16.19;66.80;96553.59;5014285;28;20394;-79
2023/07/26 09:45:36;;;;;;;5.20;4.63;;;;;;;16.20;68.36;96553.38;5014417;28;20053;-78
2023/07/26 09:48:08;;;;;;;4.38;3.58;;;;;;;16.25;69.84;96556.16;5015807;28;20053;-79
2023/07/26 09:50:51;;;;;;;4.53;2.92;;;;;;;16.30;68.02;96562.59;5023017;28;20057;-79
2023/07/26 09:53:22;;;;;;;3.92;3.63;;;;;;;16.27;67.69;96548.03;5019631;28;20054;-79
2023/07/26 09:55:51;;;;;;;5.40;4.00;;;;;;;16.25;67.25;96550.09;5014404;28;20045;-79
2023/07/26 09:58:22;;;;;;;5.20;3.97;;;;;;;16.19;67.07;96543.06;5014140;28;20058;-79
2023/07/26 10:00:51;;;;;;;7.85;3.38;;;;;;;16.13;67.14;96549.19;5013303;28;20054;-78
2023/07/26 10:03:22;;;;;;;3.20;2.88;;;;;;;16.06;67.44;96544.00;5013582;28;20050;-79
2023/07/26 10:05:53;;;;;;;2.60;2.40;;;;;;;15.96;67.76;96547.13;5013406;28;20057;-79
2023/07/26 10:08:23;;;;;;;3.15;2.55;;;;;;;15.89;67.59;96549.00;5013500;28;20057;-78
2023/07/26 10:10:53;;;;;;;4.47;2.65;;;;;;;15.82;67.65;96551.69;5013333;28;20312;-79
2023/07/26 10:13:21;;;;;;;3.70;2.22;;;;;;;15.73;66.68;96552.19;5013313;28;20054;-79
2023/07/26 10:15:51;;;;;;;7.22;3.50;;;;;;;15.66;69.09;96547.75;5013300;28;20414;-78
2023/07/26 10:18:23;;;;;;;6.15;4.45;;;;;;;15.62;70.17;96551.84;5013511;28;20548;-79
2023/07/26 10:20:54;;;;;;;5.38;4.30;;;;;;;15.62;69.98;96551.03;5013093;28;20062;-79
2023/07/26 10:23:24;;;;;;;5.50;4.20;;;;;;;15.58;70.76;96548.03;5013588;28;20050;-78
2023/07/26 10:25:52;;;;;;;5.20;4.20;;;;;;;15.61;70.89;96544.16;5013162;28;20045;-78
2023/07/26 10:28:21;;;;;;;4.88;4.38;;;;;;;15.72;71.34;96546.13;5012786;28;20490;-79
2023/07/26 10:30:49;;;;;;;7.35;4.68;;;;;;;15.94;72.38;96543.91;5012737;28;20057;-79
2023/07/26 10:33:17;;;;;;;5.90;4.43;;;;;;;16.15;72.44;96544.50;5013542;28;20061;-78
2023/07/26 10:35:47;;;;;;;3.83;3.53;;;;;;;16.32;70.57;96539.50;5013277;28;20046;-78
2023/07/26 10:38:15;;;;;;;4.50;3.88;;;;;;;16.40;69.83;96542.63;5013171;28;20111;-79
2023/07/26 10:40:44;;;;;;;5.30;3.10;;;;;;;16.46;68.49;96540.94;5013108;28;20129;-78
2023/07/26 10:43:36;;;;;;;4.40;4.03;;;;;;;16.52;70.64;96539.25;5012814;28;20054;-78
2023/07/26 10:46:09;;;;;;;3.20;3.00;;;;;;;16.57;70.32;96542.03;5015747;28;20470;-78
2023/07/26 10:48:39;;;;;;;3.70;2.30;;;;;;;16.54;66.62;96553.00;5013367;28;20064;-78
2023/07/26 10:51:24;;;;;;;4.55;2.33;;;;;;;16.46;66.40;96549.66;5012714;28;20049;-78
2023/07/26 10:53:53;;;;;;;2.65;2.03;;;;;;;16.41;67.58;96548.69;5014586;28;20069;-79
2023/07/26 10:56:25;;;;;;;1.33;1.23;;;;;;;16.36;67.47;96549.34;5030972;28;20110;-79
2023/07/26 10:58:58;;;;;;;1.73;1.63;;;;;;;16.38;67.40;96544.69;5027727;28;20056;-79
2023/07/26 11:01:36;;;;;;;1.73;1.30;;;;;;;16.40;67.14;96545.25;5013317;28;20054;-78
2023/07/26 11:04:11;;;;;;;2.35;1.40;;;;;;;16.46;67.37;96546.19;5012963;28;20437;-78
2023/07/26 11:06:52;;;;;;;1.45;1.35;;;;;;;16.52;68.01;96540.06;5012822;28;20486;-78
2023/07/26 11:09:21;;;;;;;1.40;1.30;;;;;;;16.55;67.43;96538.81;5012825;28;20490;-78
2023/07/26 11:11:54;;;;;;;1.27;0.93;;;;;;;16.57;67.65;96542.81;5035327;28;20026;-78
2023/07/26 11:14:24;;;;;;;1.92;1.45;;;;;;;16.57;67.94;96542.03;5013918;28;20112;-78
2023/07/26 11:16:53;;;;;;;2.42;1.90;;;;;;;16.56;68.90;96545.69;5012772;28;20046;-78
2023/07/26 11:19:24;;;;;;;1.80;1.00;;;;;;;16.52;67.56;96550.59;5012661;28;20426;-78
2023/07/26 11:21:51;;;;;;;1.75;1.48;;;;;;;16.47;67.17;96551.25;5012386;28;20345;-78
2023/07/26 11:24:27;;;;;;;2.17;1.88;;;;;;;16.42;67.54;96556.38;5012427;28;20100;-78
2023/07/26 11:26:56;;;;;;;2.83;1.92;;;;;;;16.38;66.83;96557.03;5012602;28;20492;-79
2023/07/26 11:29:24;;;;;;;1.73;1.60;;;;;;;16.37;67.74;96558.84;5012387;28;20105;-79
2023/07/26 11:31:51;;;;;;;1.65;1.30;;;;;;;16.35;67.86;96554.84;5012593;28;20053;-79
2023/07/26 11:34:20;;;;;;;1.05;1.05;;;;;;;16.36;67.58;96557.25;5012398;28;20054;-78
2023/07/26 11:36:48;;;;;;;2.13;1.15;;;;;;;16.37;67.55;96542.25;5012595;28;20046;-78
2023/07/26 11:39:20;;;;;;;1.10;1.02;;;;;;;16.42;67.77;96551.13;5015657;28;20054;-79
2023/07/26 11:41:48;;;;;;;1.65;1.10;;;;;;;16.53;67.92;96540.84;5016079;28;20057;-78